Time;durP1;ratioP1;P1;durP2;ratioP2;P2;SDS_P1;SDS_P2;PMS_P1;PMS_P2;Temp;Humidity;BMP_temperature;BMP_pressure;BME280_temperature;BME280_humidity;BME280_pressure;Samples;Min_cycle;Max_cycle;Signal;HPM_P1;HPM_P2
2023/01/16 00:00:51;;;;;;;2.77;1.00;;;;;;;2.13;99.28;97017.63;5047415;28;20235;-82
2023/01/16 00:03:18;;;;;;;1.83;0.70;;;;;;;2.22;98.53;97011.94;5047305;28;20212;-82
2023/01/16 00:05:45;;;;;;;3.60;1.37;;;;;;;2.42;97.86;97003.88;5053361;28;20216;-82
2023/01/16 00:08:12;;;;;;;2.70;0.90;;;;;;;2.64;95.98;96999.13;5054551;28;20241;-82
2023/01/16 00:10:38;;;;;;;4.70;0.77;;;;;;;2.75;95.25;96986.31;5053944;28;20218;-82
2023/01/16 00:13:07;;;;;;;2.73;1.07;;;;;;;2.82;95.14;96986.84;5054528;28;20240;-82
2023/01/16 00:15:33;;;;;;;1.57;0.80;;;;;;;2.86;95.32;96989.16;5054366;28;20590;-82
2023/01/16 00:18:00;;;;;;;2.13;0.77;;;;;;;2.92;94.75;96986.22;5054390;28;20267;-83
2023/01/16 00:20:26;;;;;;;2.30;1.00;;;;;;;3.02;94.45;96976.94;5053586;28;20212;-82
2023/01/16 00:22:53;;;;;;;1.90;0.80;;;;;;;3.02;93.97;96963.03;5054341;28;20206;-82
2023/01/16 00:25:19;;;;;;;1.93;0.63;;;;;;;2.99;93.10;96966.66;5054084;28;20208;-82
2023/01/16 00:27:46;;;;;;;1.53;1.10;;;;;;;3.07;93.53;96966.22;5053943;28;20237;-83
2023/01/16 00:30:14;;;;;;;2.30;1.20;;;;;;;3.14;92.27;96957.97;5053227;28;20714;-83
2023/01/16 00:32:41;;;;;;;1.33;0.90;;;;;;;3.23;90.96;96946.97;5053751;28;20284;-83
2023/01/16 00:35:08;;;;;;;1.57;0.87;;;;;;;3.37;89.84;96933.91;5054192;28;20681;-83
2023/01/16 00:37:34;;;;;;;5.27;1.20;;;;;;;3.37;89.27;96944.38;5054654;28;20253;-83
2023/01/16 00:40:01;;;;;;;1.37;0.80;;;;;;;3.35;89.77;96934.94;5052971;28;20217;-83
2023/01/16 00:42:27;;;;;;;2.40;0.80;;;;;;;3.37;90.45;96928.69;5054003;28;20211;-85
2023/01/16 00:44:54;;;;;;;1.90;1.00;;;;;;;3.42;89.17;96916.22;5053907;28;20213;-83
2023/01/16 00:47:21;;;;;;;2.73;0.77;;;;;;;3.37;89.66;96910.41;5053890;28;20615;-83
2023/01/16 00:49:48;;;;;;;1.97;0.80;;;;;;;3.34;89.89;96910.63;5053194;28;20205;-83
2023/01/16 00:52:14;;;;;;;2.23;0.77;;;;;;;3.30;90.11;96903.06;5053864;28;20228;-81
2023/01/16 00:54:41;;;;;;;2.00;0.93;;;;;;;3.20;90.03;96907.16;5053755;28;20206;-81
2023/01/16 00:57:07;;;;;;;2.17;1.10;;;;;;;3.17;90.69;96900.34;5054044;28;20235;-83
2023/01/16 00:59:34;;;;;;;1.90;0.80;;;;;;;3.02;90.90;96887.34;5053055;28;20701;-81
2023/01/16 01:02:00;;;;;;;1.50;0.90;;;;;;;2.97;89.94;96887.63;5054026;28;20595;-83
2023/01/16 01:04:28;;;;;;;1.37;0.93;;;;;;;2.81;91.88;96889.44;5053941;28;20210;-81
2023/01/16 01:06:55;;;;;;;1.57;1.00;;;;;;;2.80;91.15;96885.16;5053459;28;20239;-84
2023/01/16 01:09:21;;;;;;;1.37;0.93;;;;;;;2.75;91.59;96879.38;5052819;28;20681;-82
2023/01/16 01:11:48;;;;;;;2.40;0.97;;;;;;;2.72;92.56;96881.31;5053539;28;20230;-82
2023/01/16 01:14:14;;;;;;;1.20;0.77;;;;;;;2.66;92.11;96879.06;5053268;28;20212;-82
2023/01/16 01:16:41;;;;;;;1.63;0.73;;;;;;;2.56;92.75;96877.94;5052438;28;20204;-82
2023/01/16 01:19:07;;;;;;;1.50;1.00;;;;;;;2.49;93.23;96874.81;5052508;28;20607;-81
2023/01/16 01:21:35;;;;;;;1.70;0.80;;;;;;;2.45;93.45;96869.88;5053218;28;20302;-81
2023/01/16 01:24:02;;;;;;;1.37;1.07;;;;;;;2.38;93.85;96868.56;5053106;28;20209;-82
2023/01/16 01:26:28;;;;;;;1.37;0.80;;;;;;;2.31;94.38;96870.66;5053455;28;20208;-81
2023/01/16 01:28:55;;;;;;;1.63;0.80;;;;;;;2.28;94.17;96875.22;5052376;28;20379;-82
2023/01/16 01:31:21;;;;;;;1.47;0.83;;;;;;;2.24;94.91;96869.34;5052973;28;20678;-81
2023/01/16 01:33:48;;;;;;;1.40;0.83;;;;;;;2.18;95.95;96868.81;5053230;28;20212;-81
2023/01/16 01:36:14;;;;;;;3.90;0.80;;;;;;;2.10;96.24;96866.66;5053016;28;20298;-81
2023/01/16 01:38:42;;;;;;;3.03;0.70;;;;;;;2.01;97.25;96864.56;5052892;28;20228;-81
2023/01/16 01:41:13;;;;;;;3.40;1.03;;;;;;;1.97;98.29;96860.44;5052558;28;20212;-81
2023/01/16 01:43:42;;;;;;;3.73;1.07;;;;;;;1.86;98.90;96849.78;5052992;28;20616;-81
2023/01/16 01:46:18;;;;;;;2.53;1.10;;;;;;;1.85;99.60;96848.09;5052845;28;20579;-81
2023/01/16 01:48:46;;;;;;;2.47;1.20;;;;;;;1.65;100.00;96852.72;5052297;28;20232;-81
2023/01/16 01:51:18;;;;;;;2.20;1.07;;;;;;;1.50;100.00;96851.78;5052214;28;20669;-81
2023/01/16 01:53:51;;;;;;;2.70;1.40;;;;;;;1.45;100.00;96846.00;5052581;28;20215;-81
2023/01/16 01:56:20;;;;;;;2.63;1.50;;;;;;;1.49;100.00;96841.47;5052367;28;20213;-81
2023/01/16 01:58:50;;;;;;;3.87;1.30;;;;;;;1.47;100.00;96822.50;5051088;28;20283;-81
2023/01/16 02:01:17;;;;;;;2.27;1.50;;;;;;;1.44;100.00;96820.88;5050705;28;20204;-80
2023/01/16 02:03:49;;;;;;;2.03;1.30;;;;;;;1.43;100.00;96821.81;5050197;28;20739;-81
2023/01/16 02:06:21;;;;;;;2.33;1.10;;;;;;;1.42;100.00;96814.91;5052626;28;20665;-81
2023/01/16 02:08:52;;;;;;;2.27;1.17;;;;;;;1.47;100.00;96802.47;5053004;28;20233;-81
2023/01/16 02:11:26;;;;;;;3.07;1.30;;;;;;;1.50;100.00;96797.13;5053032;28;20219;-81
2023/01/16 02:13:55;;;;;;;1.10;1.00;;;;;;;1.47;100.00;96786.88;5053097;28;20667;-81
2023/01/16 02:19:16;;;;;;;1.83;1.00;;;;;;;1.46;100.00;96759.16;5052042;28;20262;-81
2023/01/16 02:22:11;;;;;;;1.40;0.93;;;;;;;1.49;100.00;96751.19;5052274;28;20218;-81
2023/01/16 02:25:17;;;;;;;2.60;1.10;;;;;;;1.42;100.00;96747.22;5052653;28;20215;-81
2023/01/16 02:28:16;;;;;;;2.37;0.83;;;;;;;1.40;100.00;96727.41;5051920;28;20239;-81
2023/01/16 02:31:05;;;;;;;2.00;1.00;;;;;;;1.38;100.00;96729.28;5051316;28;20561;-81
2023/01/16 02:33:43;;;;;;;2.53;0.97;;;;;;;1.38;100.00;96724.06;5052034;28;20239;-81
2023/01/16 02:36:17;;;;;;;3.00;0.90;;;;;;;1.32;100.00;96717.44;5052476;28;20617;-81
2023/01/16 02:38:55;;;;;;;3.33;0.80;;;;;;;1.25;100.00;96713.50;5051658;28;20225;-81
2023/01/16 02:41:31;;;;;;;1.57;0.90;;;;;;;1.26;100.00;96704.78;5051741;28;20212;-81
2023/01/16 02:44:05;;;;;;;1.90;1.07;;;;;;;1.19;100.00;96698.25;5051886;28;20207;-81
2023/01/16 02:46:36;;;;;;;2.80;0.90;;;;;;;1.10;100.00;96695.31;5051469;28;20306;-82
2023/01/16 02:49:11;;;;;;;2.27;1.13;;;;;;;1.07;100.00;96683.31;5050622;28;20211;-81
2023/01/16 02:51:43;;;;;;;2.10;1.00;;;;;;;1.09;100.00;96671.03;5051446;28;20207;-81
2023/01/16 02:54:16;;;;;;;5.07;1.30;;;;;;;1.08;100.00;96664.16;5051743;28;20216;-81
2023/01/16 02:56:49;;;;;;;1.97;1.30;;;;;;;1.08;100.00;96653.75;5051955;28;20588;-81
2023/01/16 02:59:17;;;;;;;3.37;1.40;;;;;;;1.07;100.00;96646.03;5050856;28;20214;-83
2023/01/16 03:01:46;;;;;;;1.93;0.93;;;;;;;1.06;100.00;96639.97;5051266;28;20204;-81
2023/01/16 03:04:52;;;;;;;3.27;1.20;;;;;;;0.97;100.00;96630.09;5051303;28;20239;-82
2023/01/16 03:07:35;;;;;;;2.23;1.60;;;;;;;0.92;100.00;96621.69;5044552;28;20228;-81
2023/01/16 03:10:19;;;;;;;1.93;1.20;;;;;;;0.98;100.00;96610.13;5050363;28;20208;-81
2023/01/16 03:12:59;;;;;;;1.90;1.20;;;;;;;0.97;100.00;96604.09;5051209;28;20240;-82
2023/01/16 03:15:30;;;;;;;3.77;1.30;;;;;;;0.98;100.00;96600.56;5051304;28;20578;-81
2023/01/16 03:18:09;;;;;;;2.30;2.10;;;;;;;1.05;100.00;96588.88;5051036;28;20226;-81
2023/01/16 03:20:42;;;;;;;3.10;1.33;;;;;;;1.07;100.00;96587.06;5050356;28;20213;-82
2023/01/16 03:23:13;;;;;;;1.40;1.00;;;;;;;1.13;100.00;96581.50;5051305;28;20213;-81
2023/01/16 03:25:49;;;;;;;3.40;0.87;;;;;;;1.24;100.00;96573.09;5051098;28;20695;-81
2023/01/16 03:28:26;;;;;;;2.93;1.10;;;;;;;1.31;100.00;96577.84;5051043;28;20760;-81
2023/01/16 03:30:59;;;;;;;3.40;1.20;;;;;;;1.44;100.00;96573.63;5050376;28;20204;-82
2023/01/16 03:33:42;;;;;;;2.77;1.10;;;;;;;1.58;100.00;96555.41;5051365;28;20226;-82
2023/01/16 03:36:13;;;;;;;2.97;1.10;;;;;;;1.66;100.00;96558.41;5051084;28;20215;-82
2023/01/16 03:38:41;;;;;;;3.23;1.10;;;;;;;1.57;100.00;96551.16;5051496;28;20231;-82
2023/01/16 03:41:11;;;;;;;3.03;0.90;;;;;;;1.49;100.00;96548.16;5054098;28;20208;-82
2023/01/16 03:43:39;;;;;;;2.73;1.03;;;;;;;1.48;100.00;96538.66;5055057;28;20207;-82
2023/01/16 03:46:10;;;;;;;2.03;1.00;;;;;;;1.43;100.00;96534.66;5054799;28;20240;-82
2023/01/16 03:48:46;;;;;;;5.83;1.10;;;;;;;1.34;100.00;96529.97;5054616;28;20233;-82
2023/01/16 03:51:16;;;;;;;2.43;1.00;;;;;;;1.21;100.00;96532.47;5054178;28;20690;-82
2023/01/16 03:53:48;;;;;;;2.60;1.17;;;;;;;1.11;100.00;96526.09;5054430;28;20601;-82
2023/01/16 03:56:20;;;;;;;2.93;1.07;;;;;;;1.04;100.00;96522.19;5054785;28;20219;-81
2023/01/16 03:58:49;;;;;;;1.13;0.97;;;;;;;1.00;100.00;96505.06;5054253;28;20232;-81
2023/01/16 04:01:23;;;;;;;4.50;1.10;;;;;;;1.02;100.00;96494.59;5054318;28;20227;-81
2023/01/16 04:03:59;;;;;;;2.03;1.00;;;;;;;1.03;100.00;96478.03;5054339;28;20203;-81
2023/01/16 04:06:34;;;;;;;2.33;1.07;;;;;;;0.96;100.00;96477.56;5054325;28;20221;-82
2023/01/16 04:09:05;;;;;;;3.70;1.60;;;;;;;0.90;100.00;96475.34;5053502;28;20204;-82
2023/01/16 04:11:34;;;;;;;2.70;1.00;;;;;;;0.89;100.00;96465.88;5054371;28;20219;-82
2023/01/16 04:14:02;;;;;;;1.97;1.00;;;;;;;0.82;100.00;96464.53;5054128;28;20228;-81
2023/01/16 04:16:30;;;;;;;2.80;1.07;;;;;;;0.87;100.00;96456.47;5054125;28;20204;-81
2023/01/16 04:18:59;;;;;;;1.83;1.27;;;;;;;0.89;100.00;96439.00;5053528;28;20218;-82
2023/01/16 04:21:27;;;;;;;1.67;1.20;;;;;;;0.92;100.00;96444.88;5054451;28;20207;-81
2023/01/16 04:23:57;;;;;;;2.20;1.30;;;;;;;0.85;100.00;96432.31;5054332;28;20204;-82
2023/01/16 04:26:23;;;;;;;3.00;1.27;;;;;;;0.84;100.00;96423.69;5054096;28;20566;-81
2023/01/16 04:28:54;;;;;;;2.30;1.10;;;;;;;0.89;100.00;96413.00;5053313;28;20238;-81
2023/01/16 04:31:22;;;;;;;1.27;1.03;;;;;;;0.78;100.00;96411.03;5053859;28;20208;-82
2023/01/16 04:33:49;;;;;;;3.57;1.30;;;;;;;0.75;100.00;96398.19;5053750;28;20275;-82
2023/01/16 04:36:17;;;;;;;1.93;1.20;;;;;;;0.79;100.00;96396.25;5054169;28;20233;-81
2023/01/16 04:38:43;;;;;;;2.50;1.17;;;;;;;0.71;100.00;96388.94;5053722;28;20234;-82
2023/01/16 04:41:10;;;;;;;3.40;1.20;;;;;;;0.72;100.00;96380.19;5053633;28;20216;-82
2023/01/16 04:43:36;;;;;;;2.07;1.00;;;;;;;0.69;100.00;96369.97;5053742;28;20209;-82
2023/01/16 04:46:03;;;;;;;5.20;1.20;;;;;;;0.72;100.00;96359.41;5053721;28;20204;-81
2023/01/16 04:48:29;;;;;;;4.30;1.20;;;;;;;0.66;100.00;96353.72;5053823;28;20267;-82
2023/01/16 04:50:56;;;;;;;2.07;1.57;;;;;;;0.61;100.00;96351.38;5051782;28;20582;-82
2023/01/16 04:53:23;;;;;;;2.60;1.20;;;;;;;0.55;100.00;96336.16;5053548;28;20237;-82
2023/01/16 04:55:50;;;;;;;2.70;1.10;;;;;;;0.60;100.00;96328.94;5053544;28;20216;-81
2023/01/16 04:58:16;;;;;;;2.10;1.17;;;;;;;0.65;100.00;96332.09;5053419;28;20235;-81
2023/01/16 05:00:43;;;;;;;3.57;1.20;;;;;;;0.59;100.00;96301.28;5052805;28;20216;-81
2023/01/16 05:03:09;;;;;;;3.07;1.30;;;;;;;0.51;100.00;96308.66;5053666;28;20200;-81
2023/01/16 05:05:38;;;;;;;3.27;1.10;;;;;;;0.52;100.00;96293.91;5053260;28;20205;-81
2023/01/16 05:08:16;;;;;;;2.03;1.10;;;;;;;0.43;100.00;96290.09;5053046;28;20706;-81
2023/01/16 05:10:44;;;;;;;1.17;0.90;;;;;;;0.38;100.00;96286.91;5052518;28;20219;-81
2023/01/16 05:13:11;;;;;;;2.27;1.10;;;;;;;0.34;100.00;96288.03;5053394;28;20232;-81
2023/01/16 05:15:37;;;;;;;1.67;0.93;;;;;;;0.33;100.00;96277.75;5053022;28;20212;-81
2023/01/16 05:18:05;;;;;;;1.17;1.00;;;;;;;0.31;100.00;96264.00;5052767;28;20228;-81
2023/01/16 05:20:31;;;;;;;1.23;1.03;;;;;;;0.25;100.00;96244.41;5052480;28;20213;-81
2023/01/16 05:22:58;;;;;;;2.07;1.00;;;;;;;0.25;100.00;96239.22;5052792;28;20210;-81
2023/01/16 05:25:24;;;;;;;2.10;1.10;;;;;;;0.22;100.00;96239.41;5052736;28;20217;-81
2023/01/16 05:27:52;;;;;;;1.83;0.90;;;;;;;0.27;100.00;96237.38;5052862;28;20243;-82
2023/01/16 05:30:19;;;;;;;1.17;0.90;;;;;;;0.22;100.00;96234.22;5052222;28;20700;-81
2023/01/16 05:32:45;;;;;;;0.70;0.70;;;;;;;0.27;100.00;96221.78;5052732;28;20221;-81
2023/01/16 05:35:12;;;;;;;2.83;1.03;;;;;;;0.35;100.00;96222.16;5052812;28;20210;-81
2023/01/16 05:37:38;;;;;;;1.83;1.00;;;;;;;0.34;100.00;96212.72;5052602;28;20236;-81
2023/01/16 05:40:05;;;;;;;1.17;0.83;;;;;;;0.43;100.00;96206.94;5051878;28;20211;-81
2023/01/16 05:42:32;;;;;;;5.33;1.33;;;;;;;0.50;100.00;96203.06;5052875;28;20215;-81
2023/01/16 05:45:00;;;;;;;2.20;0.90;;;;;;;0.46;100.00;96190.34;5052475;28;20209;-81
2023/01/16 05:47:26;;;;;;;1.90;0.87;;;;;;;0.47;100.00;96181.63;5052581;28;20230;-81
2023/01/16 05:49:52;;;;;;;1.20;0.97;;;;;;;0.46;100.00;96165.22;5051669;28;20213;-81
2023/01/16 05:52:19;;;;;;;1.60;0.97;;;;;;;0.52;100.00;96159.63;5052011;28;20608;-81
2023/01/16 05:54:46;;;;;;;2.90;1.30;;;;;;;0.66;100.00;96151.81;5052480;28;20236;-81
2023/01/16 05:57:12;;;;;;;1.07;1.00;;;;;;;0.80;100.00;96138.78;5052637;28;20615;-82
2023/01/16 05:59:41;;;;;;;3.27;0.87;;;;;;;0.97;100.00;96138.56;5051806;28;20261;-81
2023/01/16 06:02:09;;;;;;;1.33;1.00;;;;;;;0.95;100.00;96126.59;5052002;28;20216;-81
2023/01/16 06:04:35;;;;;;;2.47;1.10;;;;;;;1.04;100.00;96120.81;5052414;28;20203;-82
2023/01/16 06:07:02;;;;;;;4.60;1.00;;;;;;;1.02;100.00;96118.31;5052052;28;20238;-82
2023/01/16 06:09:28;;;;;;;1.47;1.00;;;;;;;1.05;100.00;96105.09;5051603;28;20213;-81
2023/01/16 06:11:55;;;;;;;1.63;1.00;;;;;;;1.11;100.00;96090.88;5052204;28;20211;-81
2023/01/16 06:14:21;;;;;;;1.30;0.80;;;;;;;1.24;100.00;96076.16;5052154;28;20491;-81
2023/01/16 06:16:48;;;;;;;1.57;1.00;;;;;;;1.46;100.00;96060.78;5051847;28;20207;-81
2023/01/16 06:19:15;;;;;;;2.50;1.30;;;;;;;1.48;100.00;96059.75;5051092;28;20210;-82
2023/01/16 06:21:42;;;;;;;2.20;0.87;;;;;;;1.46;100.00;96051.22;5051797;28;20213;-81
2023/01/16 06:24:08;;;;;;;3.90;1.10;;;;;;;1.44;100.00;96045.28;5051890;28;20214;-81
2023/01/16 06:26:35;;;;;;;1.20;1.10;;;;;;;1.49;100.00;96027.59;5051915;28;20209;-82
2023/01/16 06:29:01;;;;;;;1.53;1.00;;;;;;;1.49;100.00;96017.19;5050987;28;20228;-81
2023/01/16 06:31:28;;;;;;;1.47;0.97;;;;;;;1.61;100.00;96016.34;5051786;28;20212;-81
2023/01/16 06:33:55;;;;;;;1.87;1.23;;;;;;;1.72;100.00;96005.22;5051441;28;20232;-81
2023/01/16 06:36:22;;;;;;;2.10;0.97;;;;;;;1.79;100.00;95986.44;5051508;28;20214;-81
2023/01/16 06:38:49;;;;;;;1.57;1.03;;;;;;;1.69;100.00;95988.03;5051205;28;20315;-81
2023/01/16 06:41:15;;;;;;;2.47;1.00;;;;;;;1.67;100.00;95982.09;5051663;28;20219;-81
2023/01/16 06:43:42;;;;;;;2.10;1.10;;;;;;;1.67;100.00;95976.88;5051781;28;20310;-81
2023/01/16 06:46:08;;;;;;;2.53;1.20;;;;;;;1.67;100.00;95970.84;5051761;28;20207;-81
2023/01/16 06:48:35;;;;;;;3.57;1.23;;;;;;;1.66;100.00;95975.22;5051176;28;20698;-82
2023/01/16 06:51:01;;;;;;;2.03;1.20;;;;;;;1.57;100.00;95975.84;5050907;28;20208;-81
2023/01/16 06:53:29;;;;;;;1.70;1.10;;;;;;;1.62;100.00;95975.53;5051174;28;20717;-81
2023/01/16 06:55:56;;;;;;;1.83;1.00;;;;;;;1.64;100.00;95965.84;5051164;28;20642;-81
2023/01/16 06:58:22;;;;;;;2.00;1.27;;;;;;;1.67;100.00;95965.66;5051319;28;20740;-81
2023/01/16 07:00:50;;;;;;;1.40;1.03;;;;;;;1.63;100.00;95961.59;5050548;28;20553;-81
2023/01/16 07:03:17;;;;;;;2.37;1.10;;;;;;;1.45;100.00;95955.88;5051145;28;20206;-81
2023/01/16 07:05:46;;;;;;;1.63;1.10;;;;;;;1.53;100.00;95958.78;5051519;28;20213;-81
2023/01/16 07:08:12;;;;;;;2.17;1.30;;;;;;;1.47;100.00;95950.56;5051325;28;20660;-81
2023/01/16 07:10:41;;;;;;;2.07;1.50;;;;;;;1.50;100.00;95938.19;5050939;28;20586;-81
2023/01/16 07:13:07;;;;;;;4.27;1.20;;;;;;;1.49;100.00;95923.50;5051238;28;20211;-81
2023/01/16 07:23:52;;;;;;;1.07;1.00;;;;;;;1.50;100.00;95906.09;5055124;28;20650;-80
2023/01/16 07:26:21;;;;;;;2.30;1.20;;;;;;;1.67;100.00;95903.97;5054952;28;20204;-81
2023/01/16 07:28:50;;;;;;;2.60;1.20;;;;;;;1.66;100.00;95897.13;5054275;28;20235;-90
2023/01/16 07:31:17;;;;;;;1.30;1.10;;;;;;;1.67;100.00;95898.78;5055266;28;20666;-85
2023/01/16 07:33:44;;;;;;;2.43;1.30;;;;;;;1.93;100.00;95878.72;5054816;28;20228;-80
2023/01/16 07:36:10;;;;;;;4.13;1.50;;;;;;;2.04;99.22;95864.03;5055202;28;20561;-81
2023/01/16 07:38:37;;;;;;;1.50;1.20;;;;;;;2.17;98.89;95864.81;5054781;28;20243;-81
2023/01/16 07:41:03;;;;;;;1.50;1.40;;;;;;;2.21;97.87;95853.19;5054315;28;20217;-79
2023/01/16 07:43:31;;;;;;;3.23;1.33;;;;;;;2.25;97.58;95849.44;5055275;28;20207;-79
2023/01/16 07:45:58;;;;;;;3.87;1.43;;;;;;;2.26;96.58;95876.34;5055008;28;20219;-79
2023/01/16 07:48:25;;;;;;;1.27;1.17;;;;;;;2.32;95.83;95875.91;5054972;28;20233;-81
2023/01/16 07:50:52;;;;;;;1.90;1.20;;;;;;;2.37;94.90;95858.97;5053993;28;20214;-82
2023/01/16 07:53:21;;;;;;;1.53;1.20;;;;;;;2.34;94.73;95853.97;5054614;28;20626;-80
2023/01/16 07:55:48;;;;;;;1.30;1.20;;;;;;;2.44;94.29;95841.94;5054680;28;20212;-79
2023/01/16 07:58:15;;;;;;;2.00;1.10;;;;;;;2.49;94.40;95841.59;5054433;28;20224;-79
2023/01/16 08:00:43;;;;;;;1.50;1.10;;;;;;;2.48;94.99;95845.16;5053941;28;20209;-85
2023/01/16 08:03:09;;;;;;;1.97;1.20;;;;;;;2.47;95.10;95833.06;5054823;28;20220;-84
2023/01/16 08:05:36;;;;;;;1.50;0.87;;;;;;;2.45;95.27;95830.56;5054714;28;20460;-83
2023/01/16 08:08:03;;;;;;;2.53;1.47;;;;;;;2.59;94.10;95822.56;5051883;28;20501;-84
2023/01/16 08:10:29;;;;;;;2.37;1.30;;;;;;;2.70;91.71;95801.72;5050637;28;20211;-86
2023/01/16 08:12:56;;;;;;;1.53;1.17;;;;;;;2.67;91.62;95796.75;5054428;28;20210;-87
2023/01/16 08:15:23;;;;;;;3.63;1.30;;;;;;;2.61;91.79;95796.34;5053011;28;20234;-85
2023/01/16 08:17:50;;;;;;;2.00;1.13;;;;;;;2.52;92.90;95797.88;5054158;28;20248;-78
2023/01/16 08:20:17;;;;;;;1.57;1.03;;;;;;;2.61;91.26;95792.00;5053624;28;20223;-85
2023/01/16 08:22:44;;;;;;;1.70;1.10;;;;;;;2.70;90.03;95778.25;5054193;28;20206;-83
2023/01/16 08:25:11;;;;;;;1.57;1.03;;;;;;;2.73;89.48;95783.25;5053785;28;20207;-81
2023/01/16 08:27:37;;;;;;;1.60;1.03;;;;;;;2.74;90.03;95777.06;5053919;28;20728;-87
2023/01/16 08:30:05;;;;;;;2.03;1.37;;;;;;;2.88;88.71;95776.84;5053404;28;20221;-86
2023/01/16 08:32:31;;;;;;;2.03;1.00;;;;;;;2.96;87.13;95761.47;5054000;28;20212;-85
2023/01/16 08:34:59;;;;;;;2.00;1.30;;;;;;;3.06;86.15;95749.34;5054288;28;20239;-86
2023/01/16 08:37:25;;;;;;;1.83;1.00;;;;;;;3.01;86.85;95758.50;5053831;28;20237;-87
2023/01/16 08:39:52;;;;;;;2.00;1.20;;;;;;;3.05;87.25;95746.88;5053074;28;20206;-87
2023/01/16 08:53:16;;;;;;;1.13;0.80;;;;;;;3.33;83.18;95710.69;5053858;28;20225;-86
2023/01/16 08:55:42;;;;;;;2.57;1.10;;;;;;;3.33;83.00;95718.50;5053627;28;20231;-86
2023/01/16 08:58:08;;;;;;;1.83;1.03;;;;;;;3.33;83.38;95713.28;5053470;28;20603;-86
2023/01/16 09:00:35;;;;;;;2.17;0.90;;;;;;;3.34;83.45;95717.56;5052734;28;20206;-86
2023/01/16 09:03:02;;;;;;;1.37;0.90;;;;;;;3.37;80.89;95717.31;5053602;28;20220;-86
2023/01/16 09:05:28;;;;;;;1.10;1.00;;;;;;;3.45;81.45;95709.72;5053667;28;20206;-86
2023/01/16 09:07:56;;;;;;;1.70;1.07;;;;;;;3.47;79.46;95699.97;5053356;28;20232;-86
2023/01/16 09:10:24;;;;;;;2.00;0.97;;;;;;;3.54;79.10;95698.53;5052435;28;20217;-86
2023/01/16 09:15:34;;;;;;;3.00;1.23;;;;;;;3.66;79.30;95702.75;5053233;28;20299;-85
2023/01/16 09:18:01;;;;;;;2.30;1.17;;;;;;;3.69;78.19;95707.75;5053502;28;20229;-86
2023/01/16 09:20:28;;;;;;;1.03;0.93;;;;;;;3.72;78.24;95711.91;5052435;28;20211;-86
2023/01/16 09:23:00;;;;;;;1.27;0.90;;;;;;;3.77;76.78;95721.03;5052965;28;20208;-86
2023/01/16 09:25:27;;;;;;;1.93;0.83;;;;;;;3.84;76.15;95730.00;5053268;28;20206;-86
2023/01/16 09:27:53;;;;;;;1.37;1.00;;;;;;;3.91;76.91;95748.66;5052924;28;20250;-86
2023/01/16 09:30:20;;;;;;;1.83;1.00;;;;;;;4.09;73.23;95724.47;5052246;28;20231;-86
2023/01/16 09:32:47;;;;;;;1.17;0.80;;;;;;;4.16;73.95;95715.16;5053097;28;20209;-86
2023/01/16 09:35:14;;;;;;;1.50;1.00;;;;;;;4.20;73.84;95702.66;5052942;28;20231;-86
2023/01/16 09:37:42;;;;;;;1.00;0.70;;;;;;;4.24;72.53;95696.22;5052627;28;20244;-86
2023/01/16 09:40:15;;;;;;;0.80;0.70;;;;;;;4.28;73.29;95690.63;5052203;28;20571;-86
2023/01/16 09:45:37;;;;;;;1.37;1.00;;;;;;;4.42;71.65;95658.94;5052935;28;20206;-86
2023/01/16 09:48:10;;;;;;;5.13;1.00;;;;;;;4.54;71.44;95650.06;5052608;28;20613;-86
2023/01/16 09:50:40;;;;;;;1.53;0.90;;;;;;;4.52;72.02;95646.72;5051709;28;20222;-87
2023/01/16 09:58:49;;;;;;;1.30;0.80;;;;;;;4.64;71.91;95634.41;5049899;28;20246;-86
2023/01/16 10:01:21;;;;;;;2.03;0.80;;;;;;;4.64;71.10;95619.53;5053341;28;20211;-89
2023/01/16 10:03:47;;;;;;;1.23;1.00;;;;;;;4.66;69.97;95625.47;5052243;28;20583;-84
2023/01/16 10:06:23;;;;;;;2.63;0.80;;;;;;;4.65;70.08;95625.59;5043646;28;20207;-85
2023/01/16 10:09:02;;;;;;;1.10;0.70;;;;;;;4.61;69.34;95611.97;5032466;28;20234;-86
2023/01/16 10:11:38;;;;;;;2.30;0.80;;;;;;;4.66;69.69;95601.09;5031819;28;20209;-82
2023/01/16 10:14:21;;;;;;;1.07;0.73;;;;;;;4.68;68.69;95589.56;5032115;28;20236;-82
2023/01/16 10:16:57;;;;;;;0.87;0.83;;;;;;;4.66;69.38;95591.47;5031889;28;20223;-82
2023/01/16 10:19:39;;;;;;;2.77;0.80;;;;;;;4.72;67.70;95575.25;5031497;28;20194;-83
2023/01/16 10:22:22;;;;;;;1.00;0.83;;;;;;;4.73;67.45;95560.38;5032048;28;20213;-83
2023/01/16 10:25:02;;;;;;;1.60;0.80;;;;;;;4.70;67.68;95551.00;5031906;28;20210;-82
2023/01/16 10:27:37;;;;;;;1.60;0.83;;;;;;;4.62;68.38;95558.69;5052058;22;20235;-77
2023/01/16 10:30:10;;;;;;;1.97;0.80;;;;;;;4.59;67.11;95548.47;5070936;28;20645;-77
2023/01/16 10:32:42;;;;;;;1.03;0.70;;;;;;;4.70;64.43;95524.84;5071474;28;20299;-78
2023/01/16 10:35:15;;;;;;;0.70;0.70;;;;;;;4.74;65.24;95526.25;5071434;28;20722;-77
2023/01/16 10:37:41;;;;;;;2.20;0.80;;;;;;;4.73;63.88;95514.13;5071449;28;20246;-77
2023/01/16 10:40:15;;;;;;;2.73;0.80;;;;;;;4.76;64.51;95503.38;5071090;28;20555;-77
2023/01/16 10:51:03;;;;;;;1.03;0.80;;;;;;;5.23;61.65;95476.44;5070087;28;20261;-78
2023/01/16 10:53:31;;;;;;;1.50;0.87;;;;;;;5.27;62.67;95477.81;5071293;28;20210;-77
2023/01/16 10:55:57;;;;;;;1.53;0.47;;;;;;;5.28;61.85;95478.63;5071192;28;20227;-78
2023/01/16 10:58:28;;;;;;;1.30;0.68;;;;;;;5.37;62.61;95477.81;5070090;28;20525;-78
2023/01/16 11:00:59;;;;;;;0.57;0.47;;;;;;;5.54;61.23;95453.50;5070602;28;20206;-77
2023/01/16 11:03:33;;;;;;;1.33;0.70;;;;;;;5.54;62.50;95480.53;5071189;28;20264;-78
2023/01/16 11:06:14;;;;;;;1.60;0.50;;;;;;;5.53;63.81;95478.91;5080082;28;20295;-79
2023/01/16 11:08:43;;;;;;;1.10;0.60;;;;;;;5.59;64.31;95474.88;5090869;28;20228;-78
2023/01/16 11:18:27;;;;;;;1.23;0.47;;;;;;;5.61;63.90;95465.13;5090694;28;20213;-77
2023/01/16 11:19:43;;;;;;;0.43;0.43;;;;;;;5.81;64.64;95451.84;5090388;28;20341;-78
2023/01/16 11:22:24;;;;;;;0.33;0.33;;;;;;;5.83;63.93;95449.06;5091193;28;20203;-78
2023/01/16 11:24:54;;;;;;;0.43;0.43;;;;;;;5.81;65.34;95451.84;5090898;28;20205;-78
2023/01/16 11:27:24;;;;;;;2.57;0.63;;;;;;;5.78;67.01;95453.88;5089708;28;20248;-77
2023/01/16 11:29:57;;;;;;;0.40;0.40;;;;;;;5.79;68.27;95464.22;5083955;28;20221;-78
2023/01/16 11:32:27;;;;;;;0.83;0.50;;;;;;;5.81;68.58;95453.66;5063992;28;20610;-79
2023/01/16 11:34:56;;;;;;;0.90;0.60;;;;;;;5.81;69.13;95462.31;5083410;28;20227;-79
2023/01/16 11:37:26;;;;;;;0.50;0.50;;;;;;;5.81;70.31;95440.53;5049911;28;20226;-79
2023/01/16 11:39:54;;;;;;;0.63;0.50;;;;;;;5.79;70.81;95453.75;5049574;28;20207;-79
2023/01/16 11:48:22;;;;;;;0.70;0.50;;;;;;;5.85;72.92;95429.63;5050756;28;20646;-80
2023/01/16 11:50:50;;;;;;;0.53;0.53;;;;;;;5.94;72.83;95410.44;5055136;28;20225;-80
2023/01/16 11:53:16;;;;;;;2.43;0.50;;;;;;;5.88;72.68;95394.44;5081526;28;20209;-79
2023/01/16 11:55:50;;;;;;;1.17;0.50;;;;;;;5.85;73.43;95400.81;5060130;28;20235;-80
2023/01/16 11:58:26;;;;;;;0.47;0.47;;;;;;;5.90;73.22;95395.97;5052487;28;20240;-79
2023/01/16 12:01:04;;;;;;;0.83;0.50;;;;;;;5.94;72.96;95386.84;5054211;28;20588;-80
2023/01/16 12:03:48;;;;;;;1.00;0.50;;;;;;;6.09;71.14;95372.28;5069722;28;20200;-80
2023/01/16 12:06:30;;;;;;;0.73;0.60;;;;;;;6.06;74.16;95369.13;5078545;28;20242;-79
2023/01/16 12:09:26;;;;;;;2.10;0.60;;;;;;;6.04;73.42;95363.22;5076909;28;20376;-80
2023/01/16 12:15:12;;;;;;;1.90;0.50;;;;;;;6.10;73.05;95345.09;5089961;28;20389;-79
2023/01/16 12:17:56;;;;;;;0.73;0.50;;;;;;;6.10;73.45;95342.47;5074743;28;20235;-80
2023/01/16 12:20:34;;;;;;;0.50;0.50;;;;;;;6.13;71.97;95326.47;5073752;28;20221;-80
2023/01/16 12:23:22;;;;;;;0.95;0.50;;;;;;;6.27;71.63;95328.56;5072990;28;20523;-80
2023/01/16 12:26:01;;;;;;;0.40;0.40;;;;;;;6.28;71.25;95313.66;5029886;28;20216;-79
2023/01/16 12:28:38;;;;;;;0.93;0.60;;;;;;;6.30;72.47;95317.75;5073732;28;20235;-79
2023/01/16 12:31:34;;;;;;;0.50;0.50;;;;;;;6.38;72.42;95298.69;5073405;28;20207;-80
2023/01/16 12:34:19;;;;;;;0.40;0.40;;;;;;;6.51;71.67;95280.75;5073737;28;20213;-81
2023/01/16 12:37:00;;;;;;;0.87;0.57;;;;;;;6.47;72.14;95287.31;5073549;28;20231;-81
2023/01/16 12:39:36;;;;;;;0.40;0.40;;;;;;;6.46;72.39;95285.63;5071107;28;20213;-81
2023/01/16 12:45:06;;;;;;;0.50;0.50;;;;;;;6.56;72.43;95287.22;5075941;28;20214;-80
2023/01/16 12:47:45;;;;;;;0.50;0.50;;;;;;;6.61;72.24;95279.72;5053142;28;20235;-81
2023/01/16 12:50:28;;;;;;;0.57;0.50;;;;;;;6.76;70.65;95266.88;5067559;28;20813;-80
2023/01/16 12:53:09;;;;;;;0.60;0.60;;;;;;;6.83;71.15;95252.19;5077098;28;20223;-79